Date,TemperatureHighF,TemperatureAvgF,TemperatureLowF,DewpointHighF,DewpointAvgF,DewpointLowF,HumidityHigh,HumidityAvg,HumidityLow,PressureMaxIn,PressureMinIn,WindSpeedMaxMPH,WindSpeedAvgMPH,GustSpeedMaxMPH,PrecipitationSumIn
2013-1-1,34.9,25.8,13.6,19.0,11.3,0.0,64,54,51,29.97,29.77,24,11,24,0.00
2013-1-2,25.3,19.3,11.1,14.9,6.7,-0.8,66,58,52,30.18,29.91,24,9,24,0.00
2013-1-3,29.5,20.7,9.5,18.5,8.2,-0.9,68,58,53,30.15,29.91,24,7,24,0.00
2013-1-4,37.0,32.0,27.3,22.4,16.7,12.4,61,53,52,29.94,29.80,43,21,43,0.00
2013-1-5,37.0,33.1,29.1,21.0,17.7,14.1,53,53,52,30.24,29.94,30,10,30,0.00
2013-1-6,37.7,35.7,35.1,25.4,24.0,21.9,67,62,54,30.00,29.85,15,10,15,0.00
2013-1-7,35.6,27.6,20.3,23.9,14.7,8.2,65,58,53,30.33,29.97,15,6,15,0.00
2013-1-8,44.2,30.9,19.9,26.8,16.2,9.0,64,54,50,30.24,30.09,13,3,13,0.00
2013-1-9,50.7,35.8,21.2,32.2,20.5,8.3,63,54,49,30.24,29.88,36,12,36,0.00
2013-1-10,48.7,38.1,32.2,30.4,22.0,16.9,58,52,49,30.53,30.24,30,6,30,0.00
2013-1-11,43.7,38.8,33.1,28.3,24.1,19.0,63,55,50,30.36,29.88,17,8,17,0.12
2013-1-12,57.4,45.4,37.4,39.4,33.9,27.2,82,65,49,29.97,29.91,8,3,8,0.00
2013-1-13,65.5,53.9,44.1,46.0,41.2,37.0,95,63,48,29.94,29.74,26,6,26,0.00
2013-1-14,52.9,37.6,29.7,41.0,23.0,14.6,67,55,51,30.30,29.68,31,12,31,0.00
2013-1-15,38.2,30.0,28.0,21.6,14.9,13.1,53,53,51,30.33,30.12,13,5,13,0.00
2013-1-16,40.1,34.1,28.6,23.4,19.2,13.6,61,54,51,30.12,29.74,15,4,15,0.00
2013-1-17,36.3,26.4,17.4,20.4,11.7,4.3,63,54,51,30.12,29.77,26,10,26,0.00
2013-1-18,27.5,20.1,11.8,11.7,6.8,2.3,65,56,51,30.30,30.00,23,6,23,0.00
2013-1-19,49.6,42.4,27.7,31.2,25.1,11.9,52,50,49,30.00,29.59,28,9,28,0.00
2013-1-20,48.6,32.7,19.4,30.2,16.6,4.8,59,51,49,30.03,29.38,63,26,63,0.00
2013-1-21,23.1,19.6,14.7,8.0,5.1,1.1,55,53,52,30.00,29.80,20,9,20,0.00
2013-1-22,15.3,11.2,7.7,1.6,-2.2,-5.5,54,54,54,30.09,29.83,33,19,33,0.00
2013-1-23,19.0,7.4,-1.3,4.7,-5.8,-14.0,54,54,53,30.15,30.06,19,7,19,0.00
2013-1-24,20.7,7.1,-5.6,5.8,-6.1,-18.0,59,54,52,30.42,30.03,28,7,28,0.00
2013-1-25,23.4,12.8,5.0,8.3,-0.5,-6.9,59,55,52,30.42,30.00,14,5,14,0.00
2013-1-26,25.5,13.6,1.2,9.9,0.4,-10.5,59,55,51,30.30,30.03,10,2,10,0.00
2013-1-27,37.9,23.1,17.4,21.4,8.9,3.7,64,54,50,30.48,30.30,11,3,11,0.00
2013-1-28,41.9,32.2,21.2,41.9,22.6,7.5,100,69,51,30.30,29.83,17,5,17,0.33
2013-1-29,52.5,40.1,32.2,52.5,40.1,32.2,100,100,100,30.03,29.74,13,3,13,0.55
2013-1-30,64.9,57.2,50.2,51.6,42.7,38.3,100,60,48,29.74,29.06,22,8,22,0.04
2013-1-31,55.3,32.1,22.8,46.4,17.7,7.8,78,55,50,29.65,29.00,56,27,56,0.17
2013-2-1,24.4,20.4,17.6,12.8,7.1,3.3,74,56,52,30.12,29.62,30,15,30,0.00
2013-2-2,22.8,18.2,12.7,7.8,4.2,0.0,56,54,52,30.12,29.91,20,7,20,0.00
2013-2-3,26.2,18.4,8.1,10.6,4.9,-4.4,65,55,51,29.91,29.74,21,5,21,0.00
2013-2-4,23.7,20.0,16.7,9.2,5.7,2.5,67,53,52,29.91,29.80,25,12,26,0.00
2013-2-5,31.1,22.7,13.3,15.4,8.9,2.6,64,55,50,29.94,29.80,9,3,9,0.00
2013-2-6,27.7,23.6,12.6,19.6,9.8,-1.0,74,55,51,30.30,29.83,28,8,28,0.00
2013-2-7,32.4,23.4,10.9,17.1,9.0,-2.5,59,54,51,30.36,30.06,20,7,20,0.00
2013-2-8,34.7,29.9,19.2,28.5,19.5,10.0,83,65,53,30.06,29.74,17,6,18,0.08
2013-2-9,24.6,18.4,9.7,10.7,7.3,0.6,69,62,54,30.36,29.97,0,0,0,0.00
2013-2-10,40.1,21.9,-0.9,23.4,9.0,-9.6,68,58,51,30.36,29.94,13,3,13,0.00
2013-2-11,57.2,39.3,34.9,37.1,22.8,19.0,68,51,47,29.94,29.53,44,15,44,0.13
2013-2-12,35.6,33.4,31.5,32.2,20.2,16.4,98,59,52,29.91,29.65,40,18,40,0.00
2013-2-13,49.8,33.0,24.3,31.4,19.0,11.0,72,56,49,29.85,29.65,8,3,8,0.00
2013-2-14,48.0,34.0,24.1,29.7,21.8,14.7,74,61,49,29.88,29.74,12,4,12,0.16
2013-2-15,39.0,35.0,25.9,28.7,19.8,10.2,74,54,51,30.00,29.71,34,16,34,0.04
2013-2-16,36.9,25.1,19.8,20.9,10.2,4.9,55,53,51,30.00,29.85,12,5,12,0.00
2013-2-17,21.6,16.1,11.5,9.7,3.0,-2.0,65,56,52,30.09,29.83,36,11,36,0.00
2013-2-18,39.9,22.2,11.5,23.2,7.6,-2.0,65,53,50,30.21,29.85,17,7,17,0.00
2013-2-19,44.6,34.1,26.8,27.3,19.3,11.9,71,54,50,29.88,29.50,31,13,31,0.04
2013-2-20,26.8,22.8,20.1,13.5,8.4,5.5,63,54,52,29.97,29.71,38,23,38,0.00
2013-2-21,21.7,17.8,13.5,12.3,5.9,-0.1,74,59,53,30.33,29.91,27,12,27,0.00
2013-2-22,35.1,27.5,18.5,21.6,14.5,6.2,66,58,52,30.33,29.97,17,6,17,0.00
2013-2-23,42.3,35.6,32.2,27.1,21.5,16.9,61,56,51,29.97,29.83,13,5,13,0.05
2013-2-24,33.3,31.5,30.2,26.1,18.7,15.9,81,59,53,29.97,29.80,18,11,18,0.00
2013-2-25,37.4,33.1,26.2,21.2,19.4,15.3,63,57,51,30.18,29.97,17,6,17,0.00
2013-2-26,46.2,34.5,23.2,30.8,21.8,13.5,92,60,50,30.18,29.80,25,8,25,0.00
2013-2-27,39.7,34.4,32.9,33.6,29.9,25.9,100,84,64,29.83,29.50,18,6,18,0.79
2013-2-28,39.9,35.2,33.4,34.0,27.9,22.4,100,76,53,29.68,29.50,15,7,15,0.13
2013-3-1,33.8,30.6,27.0,30.2,19.5,12.6,87,64,53,29.85,29.65,17,8,17,0.00
2013-3-2,27.0,24.7,23.0,17.1,13.8,10.2,74,63,53,29.88,29.80,15,8,15,0.00
2013-3-3,26.2,23.3,21.0,17.5,11.5,9.0,79,60,54,29.83,29.77,18,8,18,0.00
2013-3-4,30.6,25.9,21.9,15.4,12.2,8.4,75,56,53,29.97,29.80,28,16,28,0.00
2013-3-5,39.4,28.5,21.9,22.7,15.2,11.8,70,57,51,30.06,29.91,15,6,15,0.00
2013-3-6,45.0,33.3,21.2,27.4,20.5,11.9,72,60,50,30.06,29.91,15,5,15,0.00
2013-3-7,39.9,35.0,31.1,26.8,21.2,15.9,70,57,51,30.21,30.06,12,4,12,0.00
2013-3-8,44.2,34.8,28.2,26.8,19.0,13.3,55,52,50,30.33,30.15,17,6,17,0.00
2013-3-9,58.1,38.0,26.2,38.0,23.0,14.6,71,55,47,30.36,30.15,9,3,9,0.00
2013-3-10,65.1,48.8,32.5,43.2,30.5,17.3,53,49,45,30.18,29.91,16,6,16,0.00
2013-3-11,55.0,51.5,47.8,35.7,32.7,29.6,49,49,48,29.94,29.65,22,8,23,0.00
2013-3-12,55.9,41.6,35.2,43.1,27.7,19.4,86,58,47,29.85,29.62,29,13,29,0.25
2013-3-13,40.3,33.3,23.7,30.3,19.6,13.6,100,57,51,29.88,29.74,31,14,31,0.00
2013-3-14,37.0,26.6,18.9,21.0,12.1,4.9,73,54,50,29.97,29.85,46,21,46,0.00
2013-3-15,40.5,31.2,22.3,25.4,16.8,7.3,72,55,51,29.97,29.62,32,12,32,0.00
2013-3-16,37.0,25.9,13.3,21.0,11.7,1.7,74,55,52,29.94,29.80,12,5,12,0.00
2013-3-17,47.3,26.5,11.3,29.1,14.3,-2.1,78,60,49,30.27,29.91,13,5,13,0.00
2013-3-18,36.9,24.7,11.1,31.5,14.4,-2.3,100,66,50,30.27,29.71,26,10,26,0.00
2013-3-19,42.3,32.3,24.8,39.0,25.8,10.5,100,79,51,29.77,29.62,33,11,33,0.12
2013-3-20,40.6,28.8,22.8,23.9,13.9,9.0,55,53,51,29.80,29.71,29,14,29,0.00
2013-3-21,38.7,25.5,17.8,22.1,10.9,3.7,59,54,50,29.77,29.65,22,9,22,0.00
2013-3-22,37.6,29.8,24.8,21.1,15.5,11.3,71,55,51,29.85,29.65,24,14,24,0.00
2013-3-23,48.0,34.0,28.4,29.7,18.4,13.4,58,53,49,29.97,29.80,23,11,23,0.00
2013-3-24,55.9,35.2,23.4,36.0,19.7,11.0,73,53,47,29.97,29.68,10,5,13,0.00
2013-3-25,52.1,36.5,30.2,33.1,20.6,15.1,58,52,48,29.71,29.56,15,6,15,0.00
2013-3-26,66.9,40.9,28.4,44.9,25.0,14.9,67,53,45,29.88,29.65,13,5,13,0.00
2013-3-27,51.3,38.5,31.8,33.2,24.5,16.6,99,58,49,30.00,29.85,24,12,24,0.00
2013-3-28,55.2,40.1,33.1,35.9,29.2,21.4,100,68,48,30.12,29.97,15,8,15,0.00
2013-3-29,62.1,43.6,36.1,41.0,27.1,20.7,60,52,46,30.12,30.03,15,9,15,0.00
2013-3-30,74.7,44.7,28.6,50.7,27.2,14.4,57,50,43,30.15,29.97,14,6,14,0.00
2013-3-31,62.2,44.5,33.3,61.6,32.8,18.0,99,67,46,30.03,29.56,21,4,21,0.17
2013-4-1,44.2,42.1,33.6,44.0,32.6,20.0,99,72,50,29.91,29.50,38,13,38,0.08
2013-4-2,43.3,43.3,43.3,25.9,25.9,25.9,50,50,50,30.03,29.85,35,16,35,0.00
2013-4-3,43.3,43.3,43.3,25.9,25.9,25.9,50,50,50,30.30,30.00,30,14,30,0.00
2013-4-4,43.3,43.3,43.3,25.9,25.9,25.9,50,50,50,30.30,29.85,16,5,16,0.00
2013-4-5,43.3,43.3,43.3,25.9,25.9,25.9,50,50,50,30.06,29.83,17,8,17,0.00
2013-4-6,43.3,43.3,43.3,25.9,25.9,25.9,50,50,50,30.27,30.00,12,4,12,0.00
2013-4-7,43.3,43.3,43.3,25.9,25.9,25.9,50,50,50,30.00,29.65,38,12,38,0.00
2013-4-8,43.3,43.3,43.3,25.9,25.9,25.9,50,50,50,30.09,29.74,12,3,12,0.00
2013-4-9,43.3,43.3,43.3,25.9,25.9,25.9,50,50,50,30.06,29.68,37,9,37,0.50
2013-4-10,43.3,43.3,43.3,25.9,25.9,25.9,50,50,50,30.00,29.83,20,5,20,0.58
2013-4-11,43.3,43.3,43.3,25.9,25.9,25.9,50,50,50,30.09,29.91,17,5,17,0.25
2013-4-12,43.3,43.3,43.3,25.9,25.9,25.9,50,50,50,29.94,29.50,32,14,32,0.92
2013-4-13,43.3,43.3,43.3,25.9,25.9,25.9,50,50,50,29.88,29.74,28,11,28,0.00
2013-4-14,43.3,43.3,43.3,25.9,25.9,25.9,50,50,50,30.15,29.85,20,6,20,0.00
2013-4-15,43.3,43.3,43.3,25.9,25.9,25.9,50,50,50,30.12,29.97,16,7,16,0.00
2013-4-16,43.3,43.3,43.3,25.9,25.9,25.9,50,50,50,30.18,29.91,20,7,20,0.12
2013-4-17,43.3,43.3,43.3,25.9,25.9,25.9,50,50,50,30.33,30.18,13,4,13,0.00
2013-4-18,43.3,43.3,43.3,25.9,25.9,25.9,50,50,50,30.18,29.71,24,10,24,0.05
2013-4-19,43.3,43.3,43.3,25.9,25.9,25.9,50,50,50,29.74,29.35,41,16,41,0.00
2013-4-20,43.3,43.3,43.3,25.9,25.9,25.9,50,50,50,30.36,29.71,39,17,39,0.00
2013-4-21,43.3,43.3,43.3,25.9,25.9,25.9,50,50,50,30.59,30.36,8,2,8,0.00
2013-4-22,72.3,45.7,43.3,59.9,29.6,25.9,72,53,50,30.86,30.33,15,4,15,0.03
2013-4-23,60.4,49.9,37.4,40.1,34.7,27.5,95,59,36,30.85,30.38,14,5,16,0.00
2013-4-24,69.7,51.8,36.8,52.9,41.5,30.2,90,69,50,30.59,30.08,24,9,30,0.04
2013-4-25,56.7,45.8,33.5,39.0,32.0,23.9,91,62,29,30.80,30.59,14,5,15,0.08
2013-4-26,52.4,43.7,34.4,39.0,33.4,28.1,94,70,42,30.96,30.79,12,4,12,0.01
2013-4-27,68.3,50.4,31.5,40.6,33.4,28.8,91,57,27,30.94,30.72,8,2,8,0.00
2013-4-28,73.8,58.6,43.3,47.2,38.2,33.6,87,50,24,30.73,30.51,20,6,20,0.08
2013-4-29,64.2,56.2,49.9,51.9,48.3,44.4,88,75,59,30.55,30.48,20,6,20,0.10
2013-4-30,72.3,64.2,54.0,55.4,51.5,48.6,91,65,49,30.71,30.53,16,7,16,0.00
2013-5-1,76.1,64.7,53.6,50.6,41.4,29.9,78,48,20,30.84,30.71,16,4,16,0.00
2013-5-2,77.1,63.1,46.7,45.8,38.4,33.1,64,42,23,30.90,30.75,12,3,12,0.00
2013-5-3,75.4,63.0,45.3,47.9,42.8,38.0,90,51,29,30.79,30.69,13,3,13,0.00
2013-5-4,74.2,62.6,51.6,44.6,41.7,37.0,65,47,29,30.72,30.63,13,2,13,0.00
2013-5-5,76.8,61.3,41.7,48.3,43.0,33.3,94,56,21,30.69,30.56,12,2,12,0.00
2013-5-6,76.8,65.6,45.0,48.3,39.6,25.6,82,42,16,30.65,30.49,10,3,10,0.00
2013-5-7,77.8,63.2,47.3,57.3,49.6,41.2,94,64,33,30.60,30.48,8,2,8,0.00
2013-5-8,69.5,61.1,50.9,61.1,55.1,48.0,96,81,59,30.54,30.39,13,2,13,0.13
2013-5-9,70.8,60.3,52.1,62.4,56.1,51.3,97,87,63,30.43,30.35,12,2,12,0.13
2013-5-10,73.9,60.2,48.6,62.4,55.7,48.1,98,86,60,30.43,30.21,22,2,22,0.86
2013-5-11,59.2,54.7,45.9,57.6,50.1,43.0,96,85,68,30.26,30.13,23,8,23,0.09
2013-5-12,50.6,44.5,36.8,44.6,35.0,27.9,97,71,43,30.40,30.17,30,15,30,0.02
2013-5-13,49.0,41.6,36.3,33.3,30.9,27.0,81,67,44,30.61,30.40,24,13,24,0.01
2013-5-14,57.7,44.7,28.2,37.5,31.7,26.2,97,64,30,30.65,30.47,12,3,12,0.00
2013-5-15,80.7,57.8,42.3,59.7,42.5,31.3,85,59,37,30.47,29.99,34,9,34,0.08
2013-5-16,74.5,61.8,46.4,49.9,42.3,33.9,86,52,25,30.48,30.20,26,7,26,0.00
2013-5-17,65.8,52.6,36.8,45.1,40.3,30.2,97,68,27,30.71,30.48,7,1,7,0.00
2013-5-18,71.0,55.4,37.3,50.4,43.2,36.5,97,67,39,30.76,30.64,10,2,10,0.00
2013-5-19,78.3,66.2,56.6,61.5,56.0,49.7,83,70,54,30.65,30.47,14,5,14,0.00
2013-5-20,84.9,70.8,56.1,68.5,61.9,54.8,96,75,51,30.52,30.32,9,2,9,0.01
2013-5-21,85.3,69.7,60.3,72.5,64.0,57.9,97,83,58,30.38,30.21,20,3,20,0.59
2013-5-22,86.1,71.4,59.6,72.8,64.8,58.7,98,82,51,30.27,30.11,15,3,15,0.09
2013-5-23,75.1,66.4,46.2,66.1,59.2,44.6,95,78,59,30.34,30.17,32,6,32,0.50
2013-5-24,50.4,43.0,38.6,44.5,39.0,35.9,96,86,63,30.66,30.34,16,5,16,0.30
2013-5-25,57.6,48.9,40.3,41.5,37.2,33.6,83,65,41,30.69,30.61,17,7,17,0.00
2013-5-26,62.1,52.6,42.3,43.2,36.7,31.5,88,56,34,30.68,30.58,22,7,22,0.00
2013-5-27,69.9,56.2,44.8,45.0,38.1,31.5,85,54,26,30.75,30.62,12,4,12,0.00
2013-5-28,62.6,55.5,47.9,57.8,50.1,40.6,96,82,63,30.65,30.43,9,3,9,0.67
2013-5-29,81.2,70.4,57.9,68.6,62.4,56.5,98,78,50,30.48,30.38,29,7,29,0.89
2013-5-30,87.0,74.5,59.9,69.7,63.1,58.8,97,71,39,30.58,30.48,18,4,18,0.00
2013-5-31,90.3,76.4,61.1,71.8,65.0,59.6,97,71,37,30.54,30.38,12,2,12,0.00
2013-6-1,87.8,75.2,62.6,70.4,65.7,60.4,96,75,46,30.43,30.23,26,5,26,0.12
2013-6-2,76.6,69.4,55.8,67.4,62.8,51.6,97,81,53,30.34,30.15,31,9,31,0.57
2013-6-3,63.3,55.7,50.1,53.9,45.8,39.0,88,70,43,30.49,30.33,15,5,15,0.00
2013-6-4,67.5,56.1,46.2,47.8,42.8,35.3,91,64,34,30.64,30.49,12,4,12,0.00
2013-6-5,68.5,57.7,46.8,54.7,45.5,38.4,92,65,42,30.70,30.57,8,2,8,0.00
2013-6-6,57.0,55.2,53.1,55.6,51.7,45.4,97,88,70,30.58,30.33,10,3,10,2.45
2013-6-7,61.3,58.2,55.5,60.2,57.2,54.9,98,97,94,30.33,30.26,4,1,4,0.16
2013-6-8,63.2,58.5,54.8,60.2,56.6,54.2,99,94,81,30.55,30.27,9,3,9,0.02
2013-6-9,75.9,64.1,53.0,59.8,54.9,51.2,95,74,48,30.67,30.55,9,3,9,0.00
2013-6-10,68.5,63.4,56.2,63.5,59.4,54.4,96,87,71,30.60,30.19,14,4,14,0.37
2013-6-11,66.2,63.2,56.1,63.2,60.6,53.6,98,91,79,30.30,30.11,20,6,20,0.28
2013-6-12,75.1,64.2,52.4,58.4,54.8,51.3,97,74,47,30.41,30.25,7,2,7,0.00
2013-6-13,63.7,59.7,53.5,58.7,56.8,52.8,98,90,78,30.25,29.99,14,4,14,0.94
2013-6-14,73.6,62.9,52.5,62.2,56.5,51.9,98,81,57,30.43,30.25,14,4,14,0.00
2013-6-15,75.4,64.3,52.2,57.7,53.1,47.5,97,69,38,30.52,30.42,12,4,12,0.00
2013-6-16,74.5,66.1,60.7,67.0,59.9,53.3,95,81,72,30.42,30.17,16,4,16,0.30
2013-6-17,77.2,67.8,59.3,67.4,61.4,57.9,96,81,56,30.40,30.29,20,4,20,0.25
2013-6-18,69.3,60.8,51.3,59.1,52.7,47.6,97,77,48,30.50,30.36,10,2,10,0.00
2013-6-19,67.3,58.1,46.4,51.8,46.5,37.4,97,69,34,30.68,30.50,8,2,8,0.00
2013-6-20,75.0,59.4,40.8,58.4,47.0,40.3,98,69,32,30.74,30.68,9,1,9,0.00
2013-6-21,82.8,65.6,46.7,62.1,52.9,45.9,98,68,31,30.76,30.64,6,1,6,0.00
2013-6-22,85.5,72.4,56.2,74.4,65.1,54.8,97,80,51,30.65,30.47,12,2,12,0.04
2013-6-23,87.9,77.4,67.9,76.0,70.2,65.9,96,80,62,30.53,30.45,12,3,12,0.01
2013-6-24,87.6,78.7,69.5,72.5,66.5,61.8,85,67,47,30.49,30.39,20,7,20,0.00
2013-6-25,82.5,75.2,65.8,71.3,66.5,62.8,92,75,61,30.40,30.25,20,7,20,0.04
2013-6-26,85.6,73.9,65.8,73.0,67.6,63.4,96,81,59,30.29,30.23,13,5,13,0.03
2013-6-27,80.3,71.4,61.1,72.6,67.4,60.3,98,88,71,30.28,30.08,12,2,12,0.70
2013-6-28,66.4,64.2,61.1,65.8,63.0,60.0,98,96,92,30.08,29.97,8,1,8,0.20
2013-6-29,77.0,66.9,61.3,68.8,63.1,60.7,98,89,61,30.16,29.98,6,1,6,0.36
2013-6-30,78.2,69.2,60.7,69.8,64.0,60.1,98,85,65,30.40,30.16,5,1,5,0.01
2013-7-1,67.7,64.4,61.1,64.6,62.6,60.0,98,94,86,30.51,30.38,8,2,8,0.57
2013-7-2,79.0,66.8,60.4,72.6,64.2,59.7,98,92,78,30.58,30.49,5,1,5,0.01
2013-7-3,87.5,72.5,62.8,75.1,68.2,62.2,99,88,59,30.62,30.55,14,2,14,0.59
2013-7-4,85.0,78.0,69.0,74.8,71.2,68.1,98,81,60,30.63,30.56,10,4,10,1.27
2013-7-5,84.8,75.0,67.5,75.7,71.1,66.9,99,88,65,30.61,30.51,13,2,13,0.78
2013-7-6,88.1,76.4,67.9,73.1,68.5,63.9,97,79,51,30.61,30.49,10,3,10,0.00
2013-7-7,84.1,76.2,68.5,73.9,69.6,65.5,98,81,61,30.52,30.39,14,5,14,0.08
2013-7-8,84.3,73.6,67.6,75.4,68.9,64.7,98,86,64,30.51,30.43,10,3,10,0.74
2013-7-9,83.2,73.4,66.9,75.2,70.4,66.3,99,91,71,30.51,30.37,9,1,9,0.10
2013-7-10,87.4,76.8,68.5,76.1,70.6,64.0,98,82,62,30.37,30.16,20,6,20,0.03
2013-7-11,78.3,69.9,60.7,66.7,61.7,57.5,98,76,57,30.49,30.27,13,4,13,0.00
2013-7-12,76.7,66.7,59.1,66.4,61.8,58.5,99,86,61,30.65,30.49,6,1,6,0.00
2013-7-13,79.8,70.6,59.0,71.1,66.0,58.4,99,86,70,30.72,30.63,8,2,8,0.00
2013-7-14,89.5,77.1,64.2,77.8,69.8,63.6,99,80,55,30.77,30.70,7,2,7,0.00
2013-7-16,90.1,83.5,68.5,74.0,69.8,66.2,96,66,47,30.73,30.66,7,1,7,0.00
2013-7-17,92.0,80.1,66.7,81.4,72.7,66.1,98,80,51,30.69,30.52,16,3,16,0.14
2013-7-18,88.3,80.0,72.4,79.6,74.3,67.9,95,83,67,30.55,30.40,24,4,24,1.08
2013-7-19,91.3,81.9,70.5,77.1,71.4,64.1,90,72,49,30.40,30.17,26,10,26,0.05
2013-7-20,79.8,71.6,67.0,70.7,67.3,64.2,97,87,59,30.35,30.17,14,4,14,0.57
2013-7-21,75.7,68.3,59.7,66.0,62.2,58.5,98,82,60,30.48,29.95,7,2,7,0.00
2013-7-22,80.4,68.4,57.8,68.0,63.1,57.0,98,84,61,29.97,29.75,4,1,8,0.00
2013-7-23,83.4,73.0,66.9,71.0,66.7,58.0,98,82,52,29.75,29.56,10,3,16,0.05
2013-7-24,69.6,62.2,51.0,60.0,53.9,50.0,97,75,55,30.02,29.65,11,3,16,0.00
2013-7-25,72.4,61.3,46.6,59.0,52.9,46.0,98,77,46,30.11,30.02,6,1,9,0.00
2013-7-26,76.4,63.6,48.3,63.0,56.2,48.0,99,79,52,30.10,29.99,3,0,7,0.00
2013-7-27,80.2,67.4,53.8,69.0,62.8,53.0,98,86,66,29.99,29.81,6,1,10,0.16
2013-7-28,74.5,67.7,59.0,67.0,63.2,58.1,97,86,67,30.45,29.79,6,1,8,0.03
2013-7-29,71.6,62.6,54.6,60.7,56.9,51.8,98,83,52,30.60,29.97,13,4,13,0.03
2013-7-30,77.1,65.6,57.0,64.3,58.8,55.0,98,80,58,30.68,30.60,14,4,14,0.00
2013-7-31,81.2,66.9,53.1,65.1,59.6,52.6,99,80,47,30.63,30.41,8,2,8,0.00
2013-8-1,77.5,68.1,61.5,69.5,63.7,59.7,97,86,64,30.41,29.77,20,3,20,0.42
2013-8-2,75.2,66.0,58.5,66.6,61.5,57.8,98,86,64,30.37,30.30,10,2,10,0.50
2013-8-3,75.1,67.0,60.7,62.7,59.2,52.9,97,78,47,30.39,30.29,16,6,16,0.21
2013-8-4,70.8,64.0,57.1,61.0,56.0,51.7,91,76,55,30.52,30.39,18,6,18,0.00
2013-8-5,75.3,62.7,50.6,60.3,54.4,49.5,98,77,45,30.59,30.01,13,3,13,0.00
2013-8-6,79.0,64.8,49.7,62.1,56.5,49.2,99,77,44,30.55,30.47,6,2,6,0.00
2013-8-7,80.8,71.4,61.5,69.2,64.2,59.2,93,79,65,30.48,30.35,14,4,14,0.00
2013-8-8,84.0,72.4,65.3,74.6,68.4,63.6,98,88,66,30.43,29.91,7,2,7,0.35
2013-8-9,78.1,69.6,66.0,70.7,66.6,59.3,99,91,69,30.38,30.31,12,3,12,0.61
2013-8-10,72.3,65.3,52.9,60.7,57.4,49.9,98,77,49,30.57,29.93,14,4,14,0.00
2013-8-11,76.2,62.5,48.0,62.3,55.9,47.7,99,81,52,30.61,30.06,12,2,12,0.00
2013-8-12,77.6,66.9,57.4,67.0,60.9,56.6,98,83,55,30.53,30.33,9,2,9,0.00
2013-8-13,73.7,65.8,58.5,67.2,60.4,49.0,97,83,62,30.33,30.20,21,6,21,0.25
2013-8-14,67.9,59.5,53.4,56.3,51.4,48.5,95,76,51,30.55,29.88,20,9,20,0.02
2013-8-15,73.9,61.9,50.0,60.8,52.1,48.0,93,72,48,30.61,30.05,18,5,18,0.00
2013-8-16,77.4,63.0,49.1,61.2,54.5,48.3,98,77,47,30.68,30.14,9,2,9,0.00
2013-8-17,79.6,64.7,50.2,63.7,57.5,49.8,99,80,48,30.78,30.22,6,1,6,0.00
2013-8-18,81.0,66.8,55.0,65.5,59.8,54.4,99,81,48,30.73,30.13,7,1,7,0.00
2013-8-19,81.8,69.0,57.2,67.4,61.5,56.4,98,80,47,30.59,30.49,8,2,8,0.00
2013-8-20,82.6,68.8,54.7,65.3,60.6,54.3,99,78,48,30.60,30.52,14,3,14,0.00
2013-8-21,84.9,71.2,56.5,69.1,63.5,55.9,99,80,52,30.63,30.48,10,2,10,0.00
2013-8-22,84.0,71.2,60.0,72.6,66.2,59.4,98,85,62,30.50,30.34,18,4,18,0.65
2013-8-23,72.6,64.2,52.6,63.3,58.4,52.1,99,83,61,30.68,30.10,7,1,7,0.01
2013-8-24,75.7,61.7,49.5,60.4,53.7,49.0,99,79,43,30.83,30.19,7,1,7,0.00
2013-8-25,81.6,65.6,47.8,65.6,56.6,47.3,99,76,41,30.83,30.60,15,3,15,0.00
2013-8-26,77.2,69.7,64.6,70.9,65.5,59.4,97,87,72,30.62,30.38,17,5,17,1.31
2013-8-27,82.9,72.1,65.0,75.5,69.2,64.4,99,91,72,30.41,30.34,6,2,6,0.01
2013-8-28,83.7,73.3,65.1,75.7,69.5,64.5,99,89,70,30.41,30.31,5,2,5,0.00
2013-8-29,82.7,71.5,62.2,74.6,67.9,61.6,99,89,66,30.50,30.41,5,1,5,0.01
2013-8-30,62.6,59.4,58.9,62.0,59.1,58.6,99,99,98,30.48,30.43,1,0,1,0.00
2013-8-31,58.9,58.9,58.9,58.6,58.6,58.6,99,99,99,30.44,30.44,0,0,0,0.00
2013-9-1,70.7,59.2,58.9,70.0,58.9,58.6,99,99,96,30.44,29.72,3,0,4,0.33
2013-9-2,82.2,71.7,62.0,74.0,68.1,59.0,98,89,70,29.75,29.62,15,2,20,0.22
2013-9-3,66.4,62.9,59.7,59.0,58.0,57.0,93,84,73,29.90,29.74,12,4,19,0.00
2013-9-4,77.0,66.1,51.3,63.0,56.2,51.0,98,73,42,29.96,29.90,16,6,22,0.00
2013-9-5,66.8,59.3,48.6,61.0,50.0,41.0,96,73,47,30.19,29.93,9,2,16,0.00
2013-9-6,69.5,55.0,40.3,53.0,46.6,40.0,98,77,43,30.27,30.07,9,1,13,0.00
2013-9-7,65.8,58.4,47.6,62.0,54.8,47.0,98,88,70,30.07,29.84,6,1,11,0.06
2013-9-8,66.1,60.2,44.6,63.0,52.5,44.0,98,78,47,30.09,29.82,6,1,9,0.09
2013-9-9,76.9,58.8,41.6,61.0,51.7,41.0,99,80,50,30.14,29.95,4,1,12,0.00
2013-9-10,90.8,76.4,61.8,77.0,70.3,60.0,95,82,60,29.97,29.88,17,3,21,0.21
2013-9-11,91.3,81.8,70.3,79.0,72.5,67.0,88,74,52,29.98,29.85,11,4,17,0.00
2013-9-12,73.3,68.3,60.4,69.0,65.7,59.0,97,91,83,29.88,29.68,8,2,18,0.14
2013-9-13,60.4,54.6,50.0,59.0,53.0,48.0,97,94,88,29.98,29.70,7,1,11,0.49
2013-9-14,61.4,51.2,42.0,51.0,46.3,41.0,98,84,59,30.11,29.97,9,2,13,0.00
2013-9-15,67.5,54.8,41.3,56.0,48.7,41.0,99,82,59,30.15,30.02,9,2,17,0.01
2013-9-16,53.9,50.2,40.4,53.0,48.6,40.0,98,94,78,30.36,30.05,8,1,8,0.18
2013-9-17,64.7,48.8,34.2,47.0,41.4,34.0,99,79,45,30.49,30.30,4,0,11,0.01
2013-9-18,72.6,54.6,37.1,56.0,47.0,37.0,99,79,44,30.29,30.09,4,1,6,0.01
2013-9-19,78.1,59.7,42.8,60.0,52.4,42.0,99,80,46,30.11,29.99,4,0,8,0.00
2013-9-20,83.1,66.4,50.2,66.0,58.7,50.0,99,79,49,29.99,29.75,9,1,11,0.00
2013-9-21,68.9,62.4,53.2,63.0,59.4,52.0,98,90,73,29.75,29.60,10,2,17,0.83
2013-9-22,54.6,51.6,48.8,52.0,46.2,42.0,96,82,67,29.99,29.68,13,5,19,0.01
2013-9-23,56.8,49.8,39.2,47.0,43.5,39.0,98,80,62,30.13,29.99,7,1,15,0.00
2013-9-24,62.8,49.4,37.7,50.0,43.1,37.0,98,81,50,30.13,29.99,6,1,9,0.00
2013-9-25,68.5,50.9,36.3,55.0,45.1,36.0,99,83,51,30.00,29.93,5,1,8,0.00
2013-9-26,70.0,52.8,37.9,58.0,48.0,37.0,99,86,58,30.13,29.99,5,1,6,0.01
2013-9-27,68.3,53.6,41.9,58.0,49.9,41.0,99,88,66,30.25,30.13,5,0,6,0.00
2013-9-28,72.6,56.0,41.3,59.0,50.7,41.0,99,84,55,30.29,30.17,7,1,11,0.01
2013-9-29,74.5,58.6,45.2,57.0,51.1,45.0,99,79,52,30.17,29.98,5,1,11,0.00
2013-9-30,74.9,59.6,46.8,62.0,54.9,46.0,98,86,60,30.00,29.91,3,0,7,0.00
2013-10-1,75.0,64.0,56.9,62.0,57.8,54.0,98,82,53,30.00,29.88,12,2,13,0.00
2013-10-2,75.8,65.2,52.2,64.0,59.3,51.0,98,82,56,30.05,29.89,14,3,18,0.00
2013-10-3,73.7,58.4,41.7,58.0,50.3,41.0,98,79,38,30.11,30.00,4,0,7,0.19
2013-10-4,66.2,60.5,56.9,65.0,59.2,56.0,98,95,89,30.04,29.96,2,0,4,0.38
2013-10-5,63.4,59.9,57.4,60.0,58.2,57.0,98,94,87,30.07,30.02,3,0,6,0.01
2013-10-6,80.6,68.3,57.8,72.0,64.8,57.0,99,89,72,30.02,29.73,7,2,16,0.29
2013-10-7,70.8,60.9,50.3,65.0,55.3,46.0,96,82,63,30.00,29.60,17,6,24,0.52
2013-10-8,62.4,51.7,41.9,49.0,45.4,41.0,98,81,54,30.34,30.01,9,2,13,0.00
2013-10-9,66.8,50.3,34.9,50.0,43.4,34.0,99,80,47,30.41,30.27,7,1,8,0.00
2013-10-10,64.3,48.8,36.4,50.0,44.0,36.0,99,85,55,30.28,30.15,3,0,6,0.01
2013-10-11,68.6,50.7,40.1,55.0,46.6,40.0,99,88,52,30.15,30.09,3,0,5,0.00
2013-10-12,73.8,54.1,36.0,53.0,42.5,34.0,99,72,23,30.19,30.11,6,1,12,0.01
2013-10-13,72.7,61.1,51.4,61.0,55.9,45.0,97,84,62,30.26,30.19,7,2,12,0.13
2013-10-14,61.6,55.7,45.0,59.0,53.3,44.0,98,92,72,30.31,30.23,5,1,8,0.27
2013-10-15,67.7,53.3,39.0,57.0,49.6,39.0,99,88,66,30.27,29.95,6,1,12,0.01
2013-10-16,65.0,60.0,56.1,59.0,54.0,48.0,95,81,64,29.95,29.74,7,2,13,0.26
2013-10-17,64.1,55.9,45.7,53.0,50.0,45.0,97,82,58,29.86,29.63,10,3,13,0.46
2013-10-18,59.1,51.9,42.5,52.0,44.4,38.0,97,77,46,29.89,29.68,17,6,23,0.06
2013-10-19,62.8,53.5,42.5,47.0,44.2,41.0,96,72,51,29.88,29.61,13,4,22,0.06
2013-10-20,53.3,46.2,40.0,44.0,40.6,37.0,91,81,62,29.98,29.72,12,4,20,0.00
2013-10-21,66.0,54.8,43.0,50.0,40.9,37.0,92,63,35,29.98,29.77,13,2,20,0.00
2013-10-22,53.1,45.9,37.7,49.0,37.8,30.0,96,75,51,29.83,29.71,18,6,25,0.16
2013-10-23,45.2,38.8,31.9,39.0,35.0,30.0,96,86,72,29.81,29.67,14,2,14,0.07
2013-10-24,47.6,38.9,33.6,37.0,32.6,30.0,94,79,52,29.99,29.77,18,8,28,0.10
2013-10-25,50.0,40.7,34.5,39.0,36.4,33.0,96,85,63,30.17,29.99,11,4,19,0.02
2013-10-26,46.3,43.0,38.8,36.0,31.9,27.0,89,66,52,30.12,29.78,21,7,36,0.00
2013-10-27,47.8,42.1,37.2,37.0,35.3,32.0,91,77,59,30.05,29.79,16,5,22,0.00
2013-10-28,48.3,40.6,25.0,40.0,32.4,23.0,94,74,54,30.39,30.02,10,3,18,0.00
2013-10-29,45.8,33.1,21.0,32.0,26.9,20.0,97,80,53,30.48,30.30,4,0,7,0.00
2013-10-30,56.2,41.8,35.8,43.0,37.8,32.0,97,87,56,30.30,30.10,3,0,5,0.04
2013-10-31,62.1,53.3,37.6,58.0,51.0,36.0,96,91,85,30.09,29.41,7,2,13,0.58
2013-11-1,62.7,57.3,48.3,59.0,49.7,42.0,94,77,56,29.65,29.18,29,11,42,0.30
2013-11-2,50.6,45.0,37.1,46.0,42.7,35.0,95,91,82,29.96,29.58,9,3,13,0.38
2013-11-3,37.1,33.7,26.2,35.0,26.7,23.0,94,76,60,30.53,29.97,7,2,11,0.00
2013-11-4,41.6,32.4,20.2,29.0,21.2,17.0,96,67,39,30.66,30.46,8,1,10,0.00
2013-11-5,55.4,45.0,33.8,35.0,28.9,21.0,65,54,45,30.48,30.32,6,2,9,0.00
2013-11-6,62.6,54.3,44.8,53.0,44.4,36.0,85,70,56,30.33,29.78,11,3,16,0.02
2013-11-7,57.6,43.9,37.2,54.0,38.5,31.0,94,81,64,29.96,29.76,16,6,19,0.40
2013-11-8,40.9,37.5,34.0,34.0,30.0,26.0,92,75,57,30.21,29.92,18,7,24,0.04
2013-11-9,50.8,41.1,32.4,41.0,31.6,28.0,86,70,55,30.20,29.76,9,3,21,0.00
2013-11-10,50.7,43.4,39.5,42.0,36.1,30.0,92,76,65,30.11,29.75,25,10,41,0.06
2013-11-11,45.6,37.3,28.8,37.0,31.7,27.0,96,81,56,30.14,29.90,21,6,28,0.14
2013-11-12,31.6,27.6,25.0,28.0,22.7,19.0,95,82,69,30.37,30.08,16,6,22,0.00
2013-11-13,37.3,29.7,20.0,26.0,19.9,14.0,77,68,52,30.42,30.08,19,7,24,0.00
2013-11-14,51.8,42.1,33.5,28.0,18.9,11.0,61,42,22,30.11,30.00,22,9,26,0.00
2013-11-15,52.1,45.9,40.6,29.0,21.2,17.0,52,38,31,30.11,30.03,12,3,15,0.00
2013-11-16,58.6,48.6,36.7,40.0,32.9,23.0,72,56,41,30.24,30.05,6,2,11,0.00
2013-11-17,59.3,54.2,49.6,54.0,49.2,41.0,93,83,71,30.05,29.36,29,4,29,0.16
2013-11-18,54.8,47.0,36.1,49.0,36.1,27.0,87,66,55,29.86,29.34,38,16,40,0.04
2013-11-19,36.9,34.2,26.3,29.0,26.3,23.0,90,73,61,30.44,29.86,18,6,29,0.00
2013-11-20,37.1,28.8,21.0,22.0,19.7,16.0,92,70,47,30.61,30.44,5,1,9,0.00
2013-11-21,45.0,37.9,28.8,37.0,24.9,15.0,89,60,47,30.49,30.26,7,2,15,0.01
2013-11-22,47.9,41.5,32.9,46.0,39.7,28.0,97,93,81,30.25,29.96,18,4,27,0.29
2013-11-23,35.9,27.9,18.1,28.0,21.4,9.0,93,77,51,30.16,29.97,24,10,36,0.00
2013-11-24,23.4,19.2,15.8,17.0,13.6,9.0,92,79,60,30.40,30.14,16,8,27,0.00
2013-11-25,34.1,27.3,16.7,19.0,13.5,6.0,84,59,31,30.40,30.11,12,4,17,0.00
2013-11-26,36.4,33.2,31.7,31.0,27.7,20.0,97,81,59,30.15,29.82,11,3,19,0.00
2013-11-27,33.5,30.0,22.4,32.0,27.6,17.0,98,90,75,29.86,29.57,14,0,21,0.00
2013-11-28,27.8,22.2,18.1,19.0,15.3,13.0,89,75,59,30.43,29.87,14,5,23,0.00
2013-11-29,27.3,19.0,4.9,21.0,14.0,3.0,94,82,59,30.75,30.43,9,1,11,0.00
2013-11-30,31.0,20.5,2.9,22.0,14.2,0.0,94,77,60,30.74,30.22,9,2,13,0.00
2013-12-1,39.1,32.5,27.7,33.0,27.6,21.0,96,82,67,30.22,29.96,3,0,5,0.20
2013-12-2,42.5,35.5,32.4,35.0,32.4,31.0,97,89,68,29.96,29.85,3,0,4,0.17
2013-12-3,40.8,31.9,24.2,31.0,27.8,23.0,96,86,61,30.01,29.90,5,0,7,0.02
2013-12-4,47.1,37.2,26.9,40.0,34.1,26.0,96,88,73,30.04,29.91,6,1,9,0.01
2013-12-5,59.7,51.1,40.7,53.2,45.0,33.5,89,80,62,30.48,29.73,22,7,22,0.00
2013-12-6,40.6,33.5,30.8,34.4,28.5,23.4,95,82,71,30.74,30.13,12,5,12,0.20
2013-12-7,30.8,27.9,24.5,26.2,19.6,14.4,88,71,54,31.05,30.72,21,11,21,0.00
2013-12-8,28.2,24.3,17.9,22.9,15.5,12.1,91,69,54,31.08,30.51,15,4,15,0.00
2013-12-9,41.6,33.8,25.4,35.8,28.9,22.6,91,82,70,30.74,30.02,28,11,28,0.04
2013-12-10,33.6,25.1,19.6,25.2,16.8,9.0,93,71,59,30.55,30.41,26,12,26,0.00
2013-12-11,24.0,20.8,14.6,20.3,13.2,8.4,90,73,58,30.77,30.55,30,12,30,0.00
2013-12-12,18.2,15.2,10.3,13.5,9.6,5.7,91,78,61,30.82,30.54,23,10,23,0.00
2013-12-13,23.4,18.5,13.1,20.0,13.3,7.3,92,80,63,30.91,30.04,25,9,25,0.00
2013-12-14,22.4,12.0,6.4,20.9,8.4,-2.9,94,85,62,30.98,30.28,12,5,12,0.00
2013-12-15,23.3,20.5,15.2,21.8,17.1,9.9,94,87,64,30.33,29.77,26,8,26,0.00
2013-12-16,21.9,13.4,-4.6,16.2,8.7,-7.5,91,81,66,30.70,30.00,26,8,26,0.00
2013-12-17,28.0,16.1,-8.1,25.0,13.1,-11.9,92,88,81,30.68,29.93,12,2,12,0.00
2013-12-18,31.2,27.9,23.6,23.6,21.5,19.5,94,77,63,30.57,30.02,21,8,21,0.00
2013-12-19,42.1,34.6,25.1,33.1,25.9,17.3,85,71,57,30.54,29.91,21,4,21,0.03
2013-12-20,45.0,38.7,33.7,41.6,36.3,31.0,97,91,78,30.50,30.27,9,1,9,0.05
2013-12-21,53.5,39.3,31.3,51.2,38.4,30.3,98,97,90,30.38,30.22,12,2,12,0.78
2013-12-22,44.9,35.3,30.9,42.3,34.0,29.9,98,95,87,30.45,29.70,20,5,20,0.23
2013-12-23,40.9,37.3,26.7,37.9,34.2,24.0,94,88,70,30.50,30.12,16,4,18,0.00
2013-12-24,26.8,18.3,9.2,24.0,15.4,5.8,93,88,79,31.01,30.20,13,4,22,0.00
2013-12-25,25.3,18.9,1.1,17.9,11.8,-2.0,91,74,67,31.01,30.23,8,2,14,0.00
2013-12-26,32.9,26.8,21.5,28.0,20.1,13.3,93,76,65,30.78,30.06,18,5,29,0.00
2013-12-27,40.6,28.9,21.5,28.8,23.8,13.0,93,81,62,30.75,30.09,9,3,20,0.00
2013-12-28,44.0,37.4,28.1,35.0,30.6,25.0,95,77,62,30.58,29.94,17,4,22,0.00
2013-12-29,45.6,36.9,21.0,39.3,31.6,15.5,97,82,63,30.47,29.61,16,3,27,0.20
2013-12-30,29.8,16.6,13.8,28.0,11.7,7.2,92,81,73,30.72,29.73,18,4,23,0.00
2013-12-31,24.0,18.2,14.1,18.0,9.8,3.0,85,70,58,30.81,29.97,22,9,39,0.00
2014-1-1,20.5,15.5,10.0,14.0,9.7,6.0,90,78,61,30.90,30.23,16,3,20,0.00
2014-1-2,14.3,8.8,2.0,12.0,6.3,-0.7,90,89,88,30.75,29.98,10,4,21,0.00